Weather History for KVSH - July, 2013

Change the Weather History Date:

Thursday, July 25, 2013

  Actual Average (KMAI) Record (KMAI)
Temperature  
Mean Temperature 86 °F 82 °F  
Max Temperature 93 °F 92 °F 97 °F (2012)
Min Temperature 80 °F 73 °F 69 °F (2007)
Degree Days  
Heating Degree Days 0    
Month to date heating degree days  
Since 1 June heating degree days  
Since 1 July heating degree days  
Cooling Degree Days 22    
Month to date cooling degree days  
Year to date cooling degree days  
Since 1 June cooling degree days  
Growing Degree Days 36 (Base 50)    
Moisture  
Dew Point 71 °F    
Average Humidity 62    
Maximum Humidity 79    
Minimum Humidity 46    
Precipitation  
Precipitation 0.00 in 0.15 in 1.14 in (1999)
Month to date precipitation 4.23  
Year to date precipitation 32.02  
Sea Level Pressure  
Sea Level Pressure 30.00 in    
Wind  
Wind Speed 5 mph (NW)    
Max Wind Speed 8 mph    
Max Gust Speed -    
Visibility 10 miles    
Events      
T = Trace of Precipitation, MM = Missing Value Source: NWS Daily Summary

Daily Weather History Graph

Daily Weather History Graph

Search for Another Location

Airport or City:

Trip Planner

Search our weather history database for the weather conditions in past years. The results will help you decide how hot, cold, wet, or windy it might be!

Date:

Astronomy

Jul. 25, 2013 Rise Set
Actual Time 5:55 AM CDT 7:41 PM CDT
Civil Twilight 5:29 AM CDT 8:08 PM CDT
Nautical Twilight 4:57 AM CDT 8:40 PM CDT
Astronomical Twilight 4:23 AM CDT 9:13 PM CDT
Moon 9:42 PM CDT (7/25) 9:06 AM CDT (7/25)
Length of Visible Light 14h 39m
Length of Day
13h 45m
Waning Gibbous, 88% of the Moon is Illuminated
Jul 25
Waning Gibbous
Jul 29
Last Quarter
Aug 6
New
Aug 14
First Quarter
Aug 20
Full

Hourly Weather History & Observations

Time (CDT) Temp. Heat Index Dew Point Humidity Pressure Visibility Wind Dir Wind Speed Gust Speed Precip Events Conditions
12:15 AM 82.4 °F 88.2 °F 73.4 °F 74% 29.94 in 10.0 mi SW 3.5 mph - N/A   Partly Cloudy
12:35 AM 82.4 °F 88.2 °F 73.4 °F 74% 29.94 in 10.0 mi SW 4.6 mph - N/A   Partly Cloudy
12:55 AM 82.4 °F 88.2 °F 73.4 °F 74% 29.93 in 10.0 mi SW 3.5 mph - N/A   Clear
1:15 AM 82.4 °F 88.2 °F 73.4 °F 74% 29.93 in 10.0 mi SW 5.8 mph - N/A   Clear
1:35 AM 82.4 °F 88.2 °F 73.4 °F 74% 29.93 in 10.0 mi WSW 8.1 mph - N/A   Scattered Clouds
1:55 AM 82.4 °F 88.2 °F 73.4 °F 74% 29.93 in 10.0 mi Calm Calm - N/A   Partly Cloudy
2:15 AM 80.6 °F 85.4 °F 73.4 °F 79% 29.93 in 10.0 mi SW 8.1 mph - N/A   Clear
2:35 AM 82.4 °F 88.2 °F 73.4 °F 74% 29.93 in 10.0 mi SW 5.8 mph - N/A   Clear
2:55 AM 82.4 °F 88.2 °F 73.4 °F 74% 29.93 in 10.0 mi WSW 4.6 mph - N/A   Clear
3:15 AM 82.4 °F 88.2 °F 73.4 °F 74% 29.94 in 10.0 mi WSW 3.5 mph - N/A   Clear
3:35 AM 82.4 °F 88.2 °F 73.4 °F 74% 29.94 in 10.0 mi WSW 8.1 mph - N/A   Partly Cloudy
3:55 AM 82.4 °F 88.2 °F 73.4 °F 74% 29.94 in 10.0 mi WSW 8.1 mph - N/A   Mostly Cloudy
4:15 AM 82.4 °F 88.2 °F 73.4 °F 74% 29.94 in 10.0 mi West 8.1 mph - N/A   Overcast
4:35 AM 82.4 °F 88.2 °F 73.4 °F 74% 29.95 in 10.0 mi West 3.5 mph - N/A   Overcast
4:55 AM 82.4 °F 88.2 °F 73.4 °F 74% 29.95 in 10.0 mi West 6.9 mph - N/A   Mostly Cloudy
5:15 AM 82.4 °F 88.2 °F 73.4 °F 74% 29.96 in 10.0 mi West 4.6 mph - N/A   Mostly Cloudy
5:35 AM 80.6 °F 85.4 °F 73.4 °F 79% 29.96 in 10.0 mi West 6.9 mph - N/A   Mostly Cloudy
5:55 AM 80.6 °F 85.4 °F 73.4 °F 79% 29.97 in 10.0 mi West 6.9 mph - N/A   Overcast
6:15 AM 80.6 °F 85.4 °F 73.4 °F 79% 29.97 in 10.0 mi WNW 6.9 mph - N/A   Overcast
6:35 AM 80.6 °F 84.6 °F 71.6 °F 74% 29.97 in 10.0 mi WNW 4.6 mph - N/A   Overcast
6:55 AM 80.6 °F 84.6 °F 71.6 °F 74% 29.97 in 10.0 mi Calm Calm - N/A   Overcast
7:15 AM 80.6 °F 84.6 °F 71.6 °F 74% 29.98 in 10.0 mi NNW 8.1 mph - N/A   Overcast
7:35 AM 80.6 °F 84.6 °F 71.6 °F 74% 29.98 in 10.0 mi NNW 3.5 mph - N/A   Scattered Clouds
7:55 AM 80.6 °F 84.6 °F 71.6 °F 74% 30.00 in 10.0 mi NW 6.9 mph - N/A   Mostly Cloudy
8:15 AM 82.4 °F 87.2 °F 71.6 °F 70% 30.00 in 10.0 mi Calm Calm - N/A   Mostly Cloudy
8:35 AM 82.4 °F 87.2 °F 71.6 °F 70% 30.01 in 10.0 mi WNW 4.6 mph - N/A   Mostly Cloudy
8:55 AM 82.4 °F 87.2 °F 71.6 °F 70% 30.03 in 10.0 mi WNW 5.8 mph - N/A   Scattered Clouds
9:15 AM 82.4 °F 87.2 °F 71.6 °F 70% 30.02 in 10.0 mi WNW 5.8 mph - N/A   Partly Cloudy
9:35 AM 82.4 °F 87.2 °F 71.6 °F 70% 30.03 in 10.0 mi NW 5.8 mph - N/A   Clear
9:55 AM 84.2 °F 89.6 °F 71.6 °F 66% 30.04 in 10.0 mi NW 4.6 mph - N/A   Scattered Clouds
10:15 AM 84.2 °F 88.4 °F 69.8 °F 62% 30.04 in 10.0 mi NNW 4.6 mph - N/A   Partly Cloudy
10:35 AM 84.2 °F 88.4 °F 69.8 °F 62% 30.04 in 10.0 mi North 6.9 mph - N/A   Clear
10:55 AM 84.2 °F 88.4 °F 69.8 °F 62% 30.04 in 10.0 mi North 4.6 mph - N/A   Clear
11:15 AM 86.0 °F 90.4 °F 69.8 °F 58% 30.04 in 10.0 mi North 5.8 mph - N/A   Clear
11:35 AM 84.2 °F 88.4 °F 69.8 °F 62% 30.04 in 10.0 mi North 6.9 mph - N/A   Clear
11:55 AM 87.8 °F 92.6 °F 69.8 °F 55% 30.04 in 10.0 mi North 4.6 mph - N/A   Clear
12:15 PM 87.8 °F 92.6 °F 69.8 °F 55% 30.05 in 10.0 mi North 5.8 mph - N/A   Clear
12:35 PM 87.8 °F 92.6 °F 69.8 °F 55% 30.05 in 10.0 mi North 6.9 mph - N/A   Clear
12:55 PM 87.8 °F 92.6 °F 69.8 °F 55% 30.05 in 10.0 mi North 4.6 mph - N/A   Clear
1:15 PM 89.6 °F 94.7 °F 69.8 °F 52% 30.04 in 10.0 mi NNE 6.9 mph - N/A   Clear
1:35 PM 89.6 °F 94.7 °F 69.8 °F 52% 30.04 in 10.0 mi North 6.9 mph - N/A   Clear
1:55 PM 89.6 °F 94.7 °F 69.8 °F 52% 30.03 in 10.0 mi NW 5.8 mph - N/A   Clear
2:15 PM 91.4 °F 96.8 °F 69.8 °F 49% 30.03 in 10.0 mi NNW 8.1 mph - N/A   Clear
2:35 PM 91.4 °F 96.8 °F 69.8 °F 49% 30.02 in 10.0 mi West 8.1 mph - N/A   Clear
2:55 PM 89.6 °F 94.7 °F 69.8 °F 52% 30.02 in 10.0 mi NW 6.9 mph - N/A   Clear
3:15 PM 89.6 °F 94.7 °F 69.8 °F 52% 30.01 in 10.0 mi North 4.6 mph - N/A   Clear
3:35 PM 91.4 °F 96.8 °F 69.8 °F 49% 30.01 in 10.0 mi North 6.9 mph - N/A   Clear
3:55 PM 91.4 °F 96.8 °F 69.8 °F 49% 30.01 in 10.0 mi NNW 5.8 mph - N/A   Clear
4:15 PM 93.2 °F 98.8 °F 69.8 °F 46% 30.01 in 10.0 mi NW 6.9 mph - N/A   Clear
4:35 PM 91.4 °F 96.8 °F 69.8 °F 49% 30.00 in 10.0 mi North 5.8 mph - N/A   Clear
4:55 PM 93.2 °F 98.8 °F 69.8 °F 46% 30.00 in 10.0 mi NNW 5.8 mph - N/A   Clear
5:15 PM 91.4 °F 96.8 °F 69.8 °F 49% 30.00 in 10.0 mi North 5.8 mph - N/A   Clear
5:35 PM 91.4 °F 96.8 °F 69.8 °F 49% 30.00 in 10.0 mi Calm Calm - N/A   Clear
5:55 PM 91.4 °F 96.8 °F 69.8 °F 49% 30.00 in 10.0 mi NNW 4.6 mph - N/A   Clear
6:15 PM 91.4 °F 96.8 °F 69.8 °F 49% 30.00 in 10.0 mi NW 4.6 mph - N/A   Clear
6:35 PM 91.4 °F 96.8 °F 69.8 °F 49% 30.01 in 10.0 mi NW 3.5 mph - N/A   Clear
6:55 PM 91.4 °F 96.8 °F 69.8 °F 49% 30.01 in 10.0 mi NW 5.8 mph - N/A   Clear
7:15 PM 91.4 °F 96.8 °F 69.8 °F 49% 30.01 in 10.0 mi North 4.6 mph - N/A   Clear
7:35 PM 89.6 °F 94.7 °F 69.8 °F 52% 30.00 in 10.0 mi North 3.5 mph - N/A   Clear
7:55 PM 89.6 °F 94.7 °F 69.8 °F 52% 30.00 in 10.0 mi Calm Calm - N/A   Clear
8:15 PM 89.6 °F 94.7 °F 69.8 °F 52% 30.01 in 10.0 mi Calm Calm - N/A   Clear
8:35 PM 89.6 °F 94.7 °F 69.8 °F 52% 30.01 in 10.0 mi Calm Calm - N/A   Clear
8:55 PM 89.6 °F 94.7 °F 69.8 °F 52% 30.01 in 10.0 mi Calm Calm - N/A   Clear
9:15 PM 89.6 °F 94.7 °F 69.8 °F 52% 30.01 in 10.0 mi Calm Calm - N/A   Partly Cloudy
9:35 PM 89.6 °F 94.7 °F 69.8 °F 52% 30.01 in 10.0 mi Calm Calm - N/A   Partly Cloudy
9:55 PM 87.8 °F 93.8 °F 71.6 °F 58% 30.01 in 10.0 mi WSW 3.5 mph - N/A   Mostly Cloudy
10:15 PM 87.8 °F 93.8 °F 71.6 °F 58% 30.02 in 10.0 mi Calm Calm - N/A   Mostly Cloudy
10:35 PM 87.8 °F 93.8 °F 71.6 °F 58% 30.03 in 10.0 mi West 3.5 mph - N/A   Mostly Cloudy
10:55 PM 87.8 °F 93.8 °F 71.6 °F 58% 30.03 in 10.0 mi Calm Calm - N/A   Partly Cloudy
11:15 PM 86.0 °F 91.8 °F 71.6 °F 62% 30.03 in 10.0 mi Calm Calm - N/A   Partly Cloudy
11:35 PM 87.8 °F 93.8 °F 71.6 °F 58% 30.03 in 10.0 mi SSW 3.5 mph - N/A   Partly Cloudy
11:55 PM 87.8 °F 93.8 °F 71.6 °F 58% 30.04 in 10.0 mi SSW 3.5 mph - N/A   Partly Cloudy